createdAt,value
2019-02-15T00:02:22.489Z,46.00
2019-02-15T00:04:50.535Z,46.09
2019-02-15T00:07:18.893Z,46.12
2019-02-15T00:09:46.961Z,46.15
2019-02-15T00:12:15.042Z,46.15
2019-02-15T00:14:47.820Z,46.17
2019-02-15T00:17:23.105Z,46.23
2019-02-15T00:19:52.794Z,46.26
2019-02-15T00:22:20.915Z,46.28
2019-02-15T00:24:49.105Z,46.29
2019-02-15T00:27:17.198Z,46.36
2019-02-15T00:29:45.270Z,46.37
2019-02-15T00:32:13.355Z,46.37
2019-02-15T00:34:41.408Z,46.38
2019-02-15T00:37:09.498Z,46.40
2019-02-15T00:39:37.583Z,46.41
2019-02-15T00:42:05.664Z,46.45
2019-02-15T00:44:33.718Z,46.45
2019-02-15T00:47:32.212Z,46.47
2019-02-15T00:50:26.005Z,46.49
2019-02-15T00:53:22.845Z,46.47
2019-02-15T00:56:04.626Z,46.49
2019-02-15T00:59:04.008Z,46.48
2019-02-15T01:01:57.701Z,46.53
2019-02-15T01:04:44.407Z,46.56
2019-02-15T01:07:22.497Z,46.60
2019-02-15T01:09:58.067Z,46.62
2019-02-15T01:12:30.892Z,46.65
2019-02-15T01:14:59.194Z,46.65
2019-02-15T01:17:27.683Z,46.68
2019-02-15T01:19:56.009Z,46.67
2019-02-15T01:22:24.491Z,46.71
2019-02-15T01:24:52.664Z,46.71
2019-02-15T01:27:46.289Z,46.74
2019-02-15T01:30:40.104Z,46.76
2019-02-15T01:33:26.437Z,46.74
2019-02-15T01:36:12.486Z,46.78
2019-02-15T01:38:47.303Z,46.81
2019-02-15T01:41:27.696Z,46.87
2019-02-15T01:44:04.221Z,46.92
2019-02-15T01:46:46.180Z,46.95
2019-02-15T01:49:15.388Z,47.00
2019-02-15T01:51:43.437Z,46.99
2019-02-15T01:54:11.514Z,47.05
2019-02-15T01:56:39.571Z,47.10
2019-02-15T01:59:07.694Z,47.11
2019-02-15T02:01:36.017Z,47.18
2019-02-15T02:04:04.105Z,47.29
2019-02-15T02:06:32.279Z,47.32
2019-02-15T02:09:00.391Z,47.38
2019-02-15T02:11:29.773Z,47.39
2019-02-15T02:13:57.860Z,47.37
2019-02-15T02:16:26.157Z,47.42
2019-02-15T02:18:54.233Z,47.47
2019-02-15T02:21:22.827Z,47.48
2019-02-15T02:23:50.915Z,47.50
2019-02-15T02:26:19.106Z,47.52
2019-02-15T02:28:47.194Z,47.49
2019-02-15T02:31:15.391Z,47.49
2019-02-15T02:33:44.717Z,47.47
2019-02-15T02:36:12.778Z,47.48
2019-02-15T02:38:40.857Z,47.48
2019-02-15T02:41:09.129Z,47.48
2019-02-15T02:43:37.466Z,47.47
2019-02-15T02:46:05.816Z,47.50
2019-02-15T02:48:33.908Z,47.52
2019-02-15T02:51:01.954Z,47.56
2019-02-15T02:53:30.026Z,47.57
2019-02-15T02:55:58.085Z,47.61
2019-02-15T02:58:26.156Z,47.62
2019-02-15T03:00:54.210Z,47.62
2019-02-15T03:03:22.269Z,47.67
2019-02-15T03:05:50.351Z,47.67
2019-02-15T03:08:19.636Z,47.69
2019-02-15T03:10:49.188Z,47.71
2019-02-15T03:13:17.323Z,47.71
2019-02-15T03:15:45.676Z,47.73
2019-02-15T03:18:13.740Z,47.76
2019-02-15T03:20:41.793Z,47.80
2019-02-15T03:23:09.872Z,47.85
2019-02-15T03:25:38.153Z,47.86
2019-02-15T03:28:06.525Z,47.88
2019-02-15T03:30:34.600Z,47.90
2019-02-15T03:33:02.847Z,47.92
2019-02-15T03:35:30.943Z,47.94
2019-02-15T03:38:21.152Z,47.96
2019-02-15T03:40:54.444Z,48.00
2019-02-15T03:43:22.487Z,48.01
2019-02-15T03:45:50.643Z,48.05
2019-02-15T03:48:19.581Z,48.08
2019-02-15T03:50:47.775Z,48.16
2019-02-15T03:53:15.816Z,48.21
2019-02-15T03:55:43.877Z,48.31
2019-02-15T03:58:11.905Z,48.38
2019-02-15T04:00:39.983Z,48.44
2019-02-15T04:03:08.054Z,48.47
2019-02-15T04:05:36.116Z,48.46
2019-02-15T04:08:04.189Z,48.48
2019-02-15T04:10:32.270Z,48.51
2019-02-15T04:13:00.612Z,48.56
2019-02-15T04:15:28.977Z,48.59
2019-02-15T04:17:57.259Z,48.63
2019-02-15T04:20:25.338Z,48.63
2019-02-15T04:22:53.387Z,48.66
2019-02-15T04:25:21.432Z,48.64
2019-02-15T04:27:49.487Z,48.68
2019-02-15T04:30:17.673Z,48.73
2019-02-15T04:32:47.770Z,48.75
2019-02-15T04:35:16.199Z,48.79
2019-02-15T04:37:44.227Z,48.84
2019-02-15T04:40:12.260Z,48.89
2019-02-15T04:42:40.629Z,48.90
2019-02-15T04:45:08.755Z,48.91
2019-02-15T04:47:36.849Z,48.92
2019-02-15T04:50:06.836Z,48.92
2019-02-15T04:52:34.865Z,48.92
2019-02-15T04:55:03.375Z,48.97
2019-02-15T04:57:31.417Z,48.97
2019-02-15T04:59:59.508Z,49.01
2019-02-15T05:02:28.724Z,49.06
2019-02-15T05:04:56.803Z,49.07
2019-02-15T05:07:24.856Z,49.12
2019-02-15T05:09:52.895Z,49.13
2019-02-15T05:12:21.686Z,49.16
2019-02-15T05:14:53.056Z,49.20
2019-02-15T05:17:20.204Z,49.21
2019-02-15T05:19:48.326Z,49.22
2019-02-15T05:22:16.501Z,49.23
2019-02-15T05:24:44.704Z,49.23
2019-02-15T05:27:13.040Z,49.26
2019-02-15T05:29:41.107Z,49.27
2019-02-15T05:32:09.176Z,49.29
2019-02-15T05:34:37.599Z,49.33
2019-02-15T05:37:05.626Z,49.31
2019-02-15T05:39:35.787Z,49.30
2019-02-15T05:42:05.048Z,49.29
2019-02-15T05:44:33.513Z,49.27
2019-02-15T05:47:02.963Z,49.31
2019-02-15T05:49:31.057Z,49.33
2019-02-15T05:51:59.160Z,49.35
2019-02-15T05:54:27.646Z,49.38
2019-02-15T05:56:55.747Z,49.42
2019-02-15T05:59:23.889Z,49.42
2019-02-15T06:01:51.955Z,49.46
2019-02-15T06:04:21.159Z,49.48
2019-02-15T06:06:49.351Z,49.48
2019-02-15T06:09:17.385Z,49.52
2019-02-15T06:11:45.838Z,49.52
2019-02-15T06:14:14.134Z,49.56
2019-02-15T06:16:42.308Z,49.58
2019-02-15T06:19:10.379Z,49.60
2019-02-15T06:21:38.457Z,49.62
2019-02-15T06:24:06.634Z,49.63
2019-02-15T06:26:34.680Z,49.66
2019-02-15T06:29:03.849Z,49.65
2019-02-15T06:31:31.939Z,49.68
2019-02-15T06:34:00.049Z,49.69
2019-02-15T06:36:33.187Z,49.69
2019-02-15T06:39:01.232Z,49.73
2019-02-15T06:41:33.006Z,49.73
2019-02-15T06:44:01.769Z,49.76
2019-02-15T06:46:29.825Z,49.79
2019-02-15T06:49:00.372Z,49.81
2019-02-15T06:51:28.443Z,49.83
2019-02-15T06:53:56.957Z,49.85
2019-02-15T06:56:25.007Z,49.89
2019-02-15T06:59:10.069Z,49.88
2019-02-15T07:01:43.440Z,49.90
2019-02-15T07:04:20.953Z,49.89
2019-02-15T07:06:49.133Z,49.92
2019-02-15T07:09:17.149Z,49.94
2019-02-15T07:11:45.446Z,49.93
2019-02-15T07:14:13.514Z,49.95
2019-02-15T07:16:41.644Z,49.95
2019-02-15T07:19:09.673Z,49.97
2019-02-15T07:21:38.983Z,49.98
2019-02-15T07:24:07.023Z,49.97
2019-02-15T07:26:36.108Z,49.96
2019-02-15T07:29:04.193Z,49.95
2019-02-15T07:31:32.282Z,49.89
2019-02-15T07:34:00.778Z,49.83
2019-02-15T07:36:28.826Z,49.76
2019-02-15T07:38:57.573Z,49.68
2019-02-15T07:41:25.621Z,49.56
2019-02-15T07:43:53.681Z,49.41
2019-02-15T07:46:22.733Z,49.27
2019-02-15T07:48:50.798Z,49.10
2019-02-15T07:51:18.851Z,48.94
2019-02-15T07:53:46.879Z,48.73
2019-02-15T07:56:15.023Z,48.50
2019-02-15T07:58:43.176Z,48.25
2019-02-15T08:01:11.245Z,47.96
2019-02-15T08:03:39.313Z,47.70
2019-02-15T08:06:07.368Z,47.48
2019-02-15T08:08:35.399Z,47.26
2019-02-15T08:11:05.281Z,46.96
2019-02-15T08:13:33.682Z,46.66
2019-02-15T08:16:02.933Z,46.46
2019-02-15T08:18:31.219Z,46.26
2019-02-15T08:20:59.258Z,46.07
2019-02-15T08:23:27.315Z,45.85
2019-02-15T08:25:55.381Z,45.70
2019-02-15T08:28:23.876Z,45.52
2019-02-15T08:30:51.923Z,45.32
2019-02-15T08:33:20.237Z,45.09
2019-02-15T08:35:48.545Z,44.84
2019-02-15T08:38:17.938Z,44.74
2019-02-15T08:40:45.978Z,44.60
2019-02-15T08:43:14.421Z,44.44
2019-02-15T08:45:42.870Z,44.32
2019-02-15T08:48:11.224Z,44.10
2019-02-15T08:50:39.237Z,43.83
2019-02-15T08:53:07.373Z,43.63
2019-02-15T08:55:35.644Z,43.39
2019-02-15T08:58:03.796Z,43.21
2019-02-15T09:00:31.876Z,43.04
2019-02-15T09:03:00.099Z,42.87
2019-02-15T09:05:28.116Z,42.63
2019-02-15T09:07:56.245Z,42.39
2019-02-15T09:10:24.421Z,42.08
2019-02-15T09:12:52.442Z,41.69
2019-02-15T09:15:21.139Z,41.37
2019-02-15T09:17:49.255Z,41.24
2019-02-15T09:20:17.612Z,41.03
2019-02-15T09:22:45.753Z,40.73
2019-02-15T09:25:14.881Z,40.50
2019-02-15T09:28:02.637Z,40.24
2019-02-15T09:30:30.784Z,39.91
2019-02-15T09:32:59.229Z,39.64
2019-02-15T09:35:27.261Z,39.48
2019-02-15T09:37:55.619Z,39.27
2019-02-15T09:40:24.563Z,39.06
2019-02-15T09:42:54.288Z,38.84
2019-02-15T09:45:22.329Z,38.61
2019-02-15T09:47:50.407Z,38.36
2019-02-15T09:50:18.467Z,38.21
2019-02-15T09:52:46.526Z,38.12
2019-02-15T09:55:14.587Z,38.02
2019-02-15T09:57:43.748Z,37.92
2019-02-15T10:00:11.778Z,37.82
2019-02-15T10:02:40.285Z,37.63
2019-02-15T10:05:08.307Z,37.16
2019-02-15T10:07:36.406Z,36.95
2019-02-15T10:10:05.481Z,36.78
2019-02-15T10:12:33.543Z,36.55
2019-02-15T10:18:04.968Z,36.11
2019-02-15T10:20:33.057Z,36.18
2019-02-15T10:23:01.117Z,36.29
2019-02-15T10:25:29.140Z,36.47
2019-02-15T10:27:57.532Z,36.69
2019-02-15T10:30:25.583Z,36.92
2019-02-15T10:32:54.020Z,37.11
2019-02-15T10:35:22.122Z,37.18
2019-02-15T10:37:50.179Z,36.98
2019-02-15T10:40:18.276Z,36.79
2019-02-15T10:42:46.298Z,36.78
2019-02-15T10:45:14.734Z,36.69
2019-02-15T10:47:42.772Z,36.50
2019-02-15T10:50:11.986Z,36.40
2019-02-15T10:52:40.002Z,36.30
2019-02-15T10:55:08.231Z,36.11
2019-02-15T10:57:36.411Z,35.92
2019-02-15T11:00:09.793Z,35.73
2019-02-15T11:02:38.111Z,35.53
2019-02-15T11:05:06.796Z,35.39
2019-02-15T11:07:34.863Z,35.26
2019-02-15T11:10:03.762Z,35.14
2019-02-15T11:12:32.908Z,34.91
2019-02-15T11:15:01.106Z,34.72
2019-02-15T11:17:29.162Z,34.52
2019-02-15T11:19:58.315Z,34.33
2019-02-15T11:22:26.392Z,34.07
2019-02-15T11:24:54.417Z,33.75
2019-02-15T11:27:22.526Z,33.59
2019-02-15T11:29:50.652Z,33.38
2019-02-15T11:32:18.721Z,33.15
2019-02-15T11:34:46.839Z,33.02
2019-02-15T11:37:15.263Z,32.90
2019-02-15T11:39:43.358Z,32.83
2019-02-15T11:42:11.569Z,32.83
2019-02-15T11:44:40.378Z,32.83
2019-02-15T11:47:09.449Z,32.81
2019-02-15T11:49:37.490Z,32.78
2019-02-15T11:52:05.996Z,32.71
2019-02-15T11:54:34.428Z,32.46
2019-02-15T11:57:02.758Z,32.26
2019-02-15T11:59:32.669Z,32.07
2019-02-15T12:02:06.329Z,31.83
2019-02-15T12:04:30.924Z,31.66
2019-02-15T12:06:59.102Z,31.53
2019-02-15T12:09:27.134Z,31.28
2019-02-15T12:11:55.185Z,31.12
2019-02-15T12:14:27.510Z,30.95
2019-02-15T12:16:55.922Z,30.64
2019-02-15T12:19:24.316Z,30.40
2019-02-15T12:21:52.389Z,30.09
2019-02-15T12:24:20.449Z,29.75
2019-02-15T12:26:48.483Z,29.60
2019-02-15T12:29:16.666Z,29.53
2019-02-15T12:31:45.095Z,29.43
2019-02-15T12:34:13.214Z,29.29
2019-02-15T12:36:41.255Z,29.01
2019-02-15T12:39:12.736Z,28.79
2019-02-15T12:41:40.002Z,28.67
2019-02-15T12:44:08.233Z,28.50
2019-02-15T12:46:39.004Z,28.42
2019-02-15T12:49:07.065Z,28.30
2019-02-15T12:51:35.282Z,28.19
2019-02-15T12:54:03.643Z,28.20
2019-02-15T12:56:32.525Z,28.14
2019-02-15T12:59:01.062Z,28.10
2019-02-15T13:01:29.208Z,27.99
2019-02-15T13:03:57.676Z,27.86
2019-02-15T13:06:28.758Z,27.76
2019-02-15T13:08:58.079Z,27.78
2019-02-15T13:11:26.140Z,27.82
2019-02-15T13:13:54.262Z,27.75
2019-02-15T13:16:22.482Z,27.76
2019-02-15T13:18:50.935Z,27.57
2019-02-15T13:21:19.046Z,27.49
2019-02-15T13:23:47.090Z,27.43
2019-02-15T13:26:15.321Z,27.44
2019-02-15T13:28:43.800Z,27.34
2019-02-15T13:31:12.545Z,27.39
2019-02-15T13:33:40.658Z,27.50
2019-02-15T13:36:08.864Z,27.43
2019-02-15T13:38:37.097Z,27.48
2019-02-15T13:41:05.222Z,27.51
2019-02-15T13:43:33.924Z,27.59
2019-02-15T13:46:02.000Z,27.56
2019-02-15T13:48:30.082Z,27.48
2019-02-15T13:50:58.130Z,27.47
2019-02-15T13:53:26.243Z,27.31
2019-02-15T13:55:55.567Z,27.11
2019-02-15T13:58:24.487Z,27.03
2019-02-15T14:00:52.700Z,26.94
2019-02-15T14:03:20.808Z,26.89
2019-02-15T14:05:48.937Z,26.82
2019-02-15T14:08:17.059Z,26.75
2019-02-15T14:10:45.185Z,26.76
2019-02-15T14:13:13.276Z,26.77
2019-02-15T14:15:41.344Z,26.72
2019-02-15T14:18:09.508Z,26.76
2019-02-15T14:20:37.516Z,26.85
2019-02-15T14:23:05.597Z,26.81
2019-02-15T14:25:33.701Z,26.76
2019-02-15T14:28:01.790Z,26.67
2019-02-15T14:30:30.189Z,26.59
2019-02-15T14:32:58.139Z,26.65
2019-02-15T14:35:26.275Z,26.77
2019-02-15T14:37:54.326Z,26.80
2019-02-15T14:40:22.397Z,26.71
2019-02-15T14:42:50.840Z,26.71
2019-02-15T14:45:19.089Z,26.68
2019-02-15T14:47:54.502Z,26.75
2019-02-15T14:50:17.804Z,26.76
2019-02-15T14:52:46.198Z,26.70
2019-02-15T14:55:14.304Z,26.71
2019-02-15T14:57:42.340Z,26.85
2019-02-15T15:00:11.276Z,26.96
2019-02-15T15:02:39.327Z,27.05
2019-02-15T15:05:07.636Z,27.06
2019-02-15T15:07:35.692Z,27.12
2019-02-15T15:10:04.627Z,27.25
2019-02-15T15:12:32.727Z,27.25
2019-02-15T15:15:00.813Z,27.31
2019-02-15T15:17:28.945Z,27.42
2019-02-15T15:19:58.226Z,27.42
2019-02-15T15:22:26.842Z,27.44
2019-02-15T15:24:54.969Z,27.46
2019-02-15T15:27:23.046Z,27.49
2019-02-15T15:29:51.112Z,27.46
2019-02-15T15:32:20.597Z,27.48
2019-02-15T15:34:48.705Z,27.55
2019-02-15T15:37:17.899Z,27.62
2019-02-15T15:39:46.544Z,27.74
2019-02-15T15:42:14.782Z,27.85
2019-02-15T15:44:43.282Z,27.95
2019-02-15T15:47:13.147Z,28.11
2019-02-15T15:49:41.233Z,28.24
2019-02-15T15:52:09.323Z,28.32
2019-02-15T15:54:37.519Z,28.39
2019-02-15T15:57:05.572Z,28.48
2019-02-15T15:59:33.817Z,28.58
2019-02-15T16:02:01.842Z,28.66
2019-02-15T16:04:30.195Z,28.77
2019-02-15T16:06:58.213Z,28.90
2019-02-15T16:09:26.741Z,28.99
2019-02-15T16:11:54.799Z,29.12
2019-02-15T16:14:24.284Z,29.26
2019-02-15T16:16:52.874Z,29.38
2019-02-15T16:19:21.596Z,29.54
2019-02-15T16:21:51.207Z,29.72
2019-02-15T16:24:19.640Z,29.95
2019-02-15T16:26:47.734Z,30.14
2019-02-15T16:29:15.900Z,30.32
2019-02-15T16:31:44.000Z,30.52
2019-02-15T16:34:12.658Z,30.74
2019-02-15T16:36:40.804Z,30.95
2019-02-15T16:39:10.011Z,31.17
2019-02-15T16:41:38.277Z,31.39
2019-02-15T16:44:06.329Z,31.57
2019-02-15T16:46:34.434Z,31.78
2019-02-15T16:49:02.924Z,31.94
2019-02-15T16:51:31.078Z,32.11
2019-02-15T16:53:59.180Z,32.26
2019-02-15T16:56:28.271Z,32.39
2019-02-15T16:58:56.313Z,32.56
2019-02-15T17:01:24.399Z,32.74
2019-02-15T17:03:52.456Z,32.85
2019-02-15T17:06:20.863Z,32.98
2019-02-15T17:08:49.840Z,33.15
2019-02-15T17:11:18.215Z,33.29
2019-02-15T17:13:50.968Z,33.45
2019-02-15T17:16:19.327Z,33.58
2019-02-15T17:37:07.367Z,34.37
2019-02-15T17:39:36.742Z,34.58
2019-02-15T17:42:04.940Z,34.81
2019-02-15T17:44:33.001Z,34.99
2019-02-15T17:47:02.482Z,35.17
2019-02-15T17:49:30.677Z,35.36
2019-02-15T17:51:58.812Z,35.57
2019-02-15T17:54:28.646Z,35.73
2019-02-15T17:56:56.949Z,35.87
2019-02-15T17:59:25.052Z,36.02
2019-02-15T18:01:53.153Z,36.09
2019-02-15T18:04:21.298Z,36.16
2019-02-15T18:06:49.837Z,36.21
2019-02-15T18:09:18.157Z,36.30
2019-02-15T18:11:46.423Z,36.37
2019-02-15T18:14:14.503Z,36.46
2019-02-15T18:16:42.640Z,36.55
2019-02-15T18:19:12.168Z,36.62
2019-02-15T18:21:40.628Z,36.72
2019-02-15T18:24:08.689Z,36.81
2019-02-15T18:26:37.065Z,36.93
2019-02-15T18:29:06.375Z,37.04
2019-02-15T18:31:34.510Z,37.15
2019-02-15T18:34:02.568Z,37.28
2019-02-15T18:36:32.093Z,37.41
2019-02-15T18:39:01.386Z,37.53
2019-02-15T18:41:30.103Z,37.65
2019-02-15T18:43:58.570Z,37.80
2019-02-15T18:46:26.654Z,37.91
2019-02-15T18:48:55.143Z,38.07
2019-02-15T18:51:23.618Z,38.27
2019-02-15T18:53:52.085Z,38.45
2019-02-15T18:56:20.375Z,38.61
2019-02-15T18:58:49.685Z,38.73
2019-02-15T19:01:18.338Z,38.85
2019-02-15T19:03:46.534Z,38.97
2019-02-15T19:06:14.694Z,39.05
2019-02-15T19:08:44.285Z,39.14
2019-02-15T19:11:12.437Z,39.24
2019-02-15T19:13:41.356Z,39.34
2019-02-15T19:16:10.805Z,39.41
2019-02-15T19:18:39.007Z,39.50
2019-02-15T19:21:07.310Z,39.53
2019-02-15T19:23:35.568Z,39.58
2019-02-15T19:26:04.155Z,39.61
2019-02-15T19:28:32.227Z,39.66
2019-02-15T19:31:00.860Z,39.69
2019-02-15T19:33:29.256Z,39.75
2019-02-15T19:35:57.399Z,39.79
2019-02-15T19:38:25.523Z,39.88
2019-02-15T19:40:53.627Z,39.95
2019-02-15T19:43:21.821Z,40.02
2019-02-15T19:45:52.596Z,40.12
2019-02-15T19:48:20.700Z,40.21
2019-02-15T19:50:48.753Z,40.29
2019-02-15T19:53:16.879Z,40.37
2019-02-15T19:55:45.097Z,40.45
2019-02-15T19:58:13.588Z,40.53
2019-02-15T20:00:42.606Z,40.60
2019-02-15T20:03:10.811Z,40.65
2019-02-15T20:05:38.991Z,40.73
2019-02-15T20:08:07.457Z,40.83
2019-02-15T20:10:35.674Z,40.90
2019-02-15T20:13:05.166Z,40.99
2019-02-15T20:15:33.395Z,41.07
2019-02-15T20:18:02.412Z,41.16
2019-02-15T20:20:32.224Z,41.25
2019-02-15T20:23:00.834Z,41.33
2019-02-15T20:25:29.914Z,41.38
2019-02-15T20:27:58.771Z,41.49
2019-02-15T20:30:27.011Z,41.58
2019-02-15T20:32:55.478Z,41.66
2019-02-15T20:35:24.246Z,41.74
2019-02-15T20:37:53.000Z,41.79
2019-02-15T20:40:21.244Z,41.84
2019-02-15T20:42:49.397Z,41.88
2019-02-15T20:45:19.371Z,41.91
2019-02-15T20:47:47.708Z,41.96
2019-02-15T20:50:16.109Z,41.98
2019-02-15T20:52:46.114Z,42.04
2019-02-15T20:55:14.696Z,42.07
2019-02-15T20:57:43.125Z,42.16
2019-02-15T21:00:15.278Z,42.23
2019-02-15T21:02:44.528Z,42.30
2019-02-15T21:05:12.992Z,42.34
2019-02-15T21:07:41.417Z,42.39
2019-02-15T21:10:10.864Z,42.47
2019-02-15T21:12:39.955Z,42.46
2019-02-15T21:15:08.801Z,42.53
2019-02-15T21:17:37.362Z,42.57
2019-02-15T21:20:08.128Z,42.59
2019-02-15T21:22:36.724Z,42.63
2019-02-15T21:25:06.371Z,42.68
2019-02-15T21:27:34.779Z,42.73
2019-02-15T21:30:03.903Z,42.77
2019-02-15T21:32:33.306Z,42.84
2019-02-15T21:35:01.520Z,42.88
2019-02-15T21:37:29.736Z,42.95
2019-02-15T21:39:57.974Z,42.98
2019-02-15T21:42:26.163Z,43.04
2019-02-15T21:44:54.247Z,43.06
2019-02-15T21:47:22.405Z,43.09
2019-02-15T21:49:50.514Z,43.11
2019-02-15T21:52:18.629Z,43.14
2019-02-15T21:54:46.729Z,43.17
2019-02-15T21:57:14.841Z,43.20
2019-02-15T21:59:43.096Z,43.24
2019-02-15T22:02:11.284Z,43.27
2019-02-15T22:04:39.357Z,43.30
2019-02-15T22:07:07.439Z,43.31
2019-02-15T22:09:35.919Z,43.34
2019-02-15T22:12:04.630Z,43.37
2019-02-15T22:14:34.224Z,43.42
2019-02-15T22:17:02.804Z,43.49
2019-02-15T22:19:30.930Z,43.55
2019-02-15T22:22:02.190Z,43.59
2019-02-15T22:24:32.375Z,43.61
2019-02-15T22:27:00.531Z,43.66
2019-02-15T22:29:29.241Z,43.71
2019-02-15T22:31:57.665Z,43.72
2019-02-15T22:34:27.171Z,43.76
2019-02-15T22:36:55.221Z,43.79
2019-02-15T22:39:23.425Z,43.81
2019-02-15T22:41:51.801Z,43.85
2019-02-15T22:44:21.597Z,43.85
2019-02-15T22:46:49.661Z,43.87
2019-02-15T22:49:17.758Z,43.87
2019-02-15T22:51:47.003Z,43.88
2019-02-15T22:54:15.400Z,43.90
2019-02-15T22:56:44.070Z,43.92
2019-02-15T22:59:12.221Z,43.93
2019-02-15T23:01:40.681Z,43.97
2019-02-15T23:04:08.765Z,43.97
2019-02-15T23:06:36.820Z,43.98
2019-02-15T23:09:19.140Z,44.01
2019-02-15T23:11:47.248Z,44.05
2019-02-15T23:14:15.375Z,44.04
2019-02-15T23:16:45.061Z,44.07
2019-02-15T23:19:13.372Z,44.10
2019-02-15T23:21:41.425Z,44.13
2019-02-15T23:24:09.528Z,44.12
2019-02-15T23:26:38.713Z,44.16
2019-02-15T23:29:06.914Z,44.18
2019-02-15T23:31:34.979Z,44.20
2019-02-15T23:34:03.324Z,44.22
2019-02-15T23:36:32.992Z,44.23
2019-02-15T23:39:01.058Z,44.29
2019-02-15T23:41:31.008Z,44.30
2019-02-15T23:43:59.089Z,44.33
2019-02-15T23:46:27.131Z,44.36
2019-02-15T23:48:55.523Z,44.37
2019-02-15T23:51:23.953Z,44.39
2019-02-15T23:53:52.041Z,44.40
2019-02-15T23:56:20.138Z,44.40
2019-02-15T23:58:48.596Z,44.42
